createdAt,value
2024-02-29T00:01:23.631Z,50.20
2024-02-29T00:03:47.326Z,47.23
2024-02-29T00:06:11.016Z,43.47
2024-02-29T00:08:34.735Z,43.70
2024-02-29T00:10:58.461Z,40.60
2024-02-29T00:13:22.544Z,44.13
2024-02-29T00:15:46.328Z,47.70
2024-02-29T00:18:11.574Z,41.83
2024-02-29T00:20:36.716Z,41.97
2024-02-29T00:23:00.347Z,39.03
2024-02-29T00:25:24.066Z,46.03
2024-02-29T00:27:47.758Z,44.43
2024-02-29T00:30:12.124Z,38.83
2024-02-29T00:32:36.459Z,41.37
2024-02-29T00:35:01.556Z,43.03
2024-02-29T00:37:25.307Z,42.10
2024-02-29T00:39:49.005Z,36.60
2024-02-29T00:42:12.662Z,39.73
2024-02-29T00:44:36.448Z,39.50
2024-02-29T00:47:00.136Z,46.07
2024-02-29T00:49:23.969Z,40.87
2024-02-29T00:51:49.113Z,39.83
2024-02-29T00:54:12.841Z,39.97
2024-02-29T00:56:36.462Z,38.63
2024-02-29T00:59:00.118Z,37.37
2024-02-29T01:01:23.848Z,43.90
2024-02-29T01:03:47.634Z,41.43
2024-02-29T01:06:11.591Z,37.47
2024-02-29T01:08:36.887Z,43.70
2024-02-29T01:11:00.783Z,43.27
2024-02-29T01:13:24.658Z,42.47
2024-02-29T01:15:50.340Z,40.53
2024-02-29T01:18:14.235Z,46.80
2024-02-29T01:20:37.896Z,39.60
2024-02-29T01:23:01.652Z,36.07
2024-02-29T01:25:26.749Z,43.23
2024-02-29T01:27:51.412Z,43.43
2024-02-29T01:30:15.620Z,41.63
2024-02-29T01:32:39.415Z,38.77
2024-02-29T01:35:03.178Z,36.13
2024-02-29T01:37:26.858Z,42.60
2024-02-29T01:39:50.582Z,41.87
2024-02-29T01:42:15.751Z,37.33
2024-02-29T01:44:48.082Z,39.17
2024-02-29T01:47:14.015Z,38.33
2024-02-29T01:49:37.645Z,40.13
2024-02-29T01:52:01.579Z,36.53
2024-02-29T01:54:25.289Z,43.73
2024-02-29T01:56:49.545Z,39.40
2024-02-29T01:59:15.406Z,39.53
2024-02-29T02:01:40.136Z,40.80
2024-02-29T02:04:04.201Z,45.67
2024-02-29T02:06:27.959Z,44.47
2024-02-29T02:08:51.638Z,33.63
2024-02-29T02:11:15.618Z,41.73
2024-02-29T02:13:40.275Z,35.87
2024-02-29T02:16:05.960Z,44.93
2024-02-29T02:18:30.636Z,40.30
2024-02-29T02:20:56.317Z,38.73
2024-02-29T02:23:19.906Z,38.67
2024-02-29T02:25:43.842Z,36.17
2024-02-29T02:28:08.016Z,41.70
2024-02-29T02:30:31.754Z,40.60
2024-02-29T02:32:55.485Z,37.60
2024-02-29T02:35:19.353Z,37.70
2024-02-29T02:37:44.358Z,37.70
2024-02-29T02:40:09.397Z,43.57
2024-02-29T02:42:33.505Z,41.20
2024-02-29T02:44:57.219Z,36.73
2024-02-29T02:47:20.819Z,39.77
2024-02-29T02:49:44.611Z,43.10
2024-02-29T02:52:08.556Z,38.80
2024-02-29T02:54:33.636Z,36.13
2024-02-29T02:56:57.255Z,39.93
2024-02-29T02:59:20.930Z,40.17
2024-02-29T03:01:44.594Z,39.23
2024-02-29T03:04:08.442Z,41.77
2024-02-29T03:06:32.173Z,39.67
2024-02-29T03:08:55.902Z,40.63
2024-02-29T03:11:21.033Z,44.93
2024-02-29T03:13:44.702Z,40.10
2024-02-29T03:16:08.424Z,44.30
2024-02-29T03:18:32.161Z,47.50
2024-02-29T03:20:56.166Z,40.20
2024-02-29T03:23:21.361Z,45.23
2024-02-29T03:25:45.040Z,45.53
2024-02-29T03:28:10.167Z,41.33
2024-02-29T03:30:34.140Z,41.10
2024-02-29T03:32:58.017Z,39.73
2024-02-29T03:35:21.764Z,45.57
2024-02-29T03:37:45.408Z,44.30
2024-02-29T03:40:11.352Z,44.33
2024-02-29T03:42:35.111Z,43.57
2024-02-29T03:45:00.290Z,47.57
2024-02-29T03:47:24.019Z,43.63
2024-02-29T03:49:47.606Z,41.57
2024-02-29T03:52:11.540Z,45.23
2024-02-29T03:54:35.298Z,47.97
2024-02-29T03:56:58.942Z,43.97
2024-02-29T03:59:22.531Z,49.07
2024-02-29T04:01:51.359Z,42.77
2024-02-29T04:04:15.115Z,44.53
2024-02-29T04:06:38.797Z,40.27
2024-02-29T04:09:03.691Z,47.00
2024-02-29T04:11:27.442Z,45.60
2024-02-29T04:13:51.080Z,42.20
2024-02-29T04:16:15.055Z,43.40
2024-02-29T04:18:40.328Z,43.43
2024-02-29T04:21:04.764Z,49.37
2024-02-29T04:23:28.407Z,51.00
2024-02-29T04:25:52.034Z,43.70
2024-02-29T04:28:16.196Z,47.37
2024-02-29T04:30:39.916Z,47.57
2024-02-29T04:33:07.057Z,45.27
2024-02-29T04:35:32.212Z,41.10
2024-02-29T04:37:55.820Z,51.70
2024-02-29T04:40:19.835Z,41.90
2024-02-29T04:42:43.683Z,47.83
2024-02-29T04:45:08.911Z,48.77
2024-02-29T04:47:32.554Z,51.23
2024-02-29T04:49:56.307Z,46.10
2024-02-29T04:52:21.462Z,45.87
2024-02-29T04:54:45.153Z,47.33
2024-02-29T04:57:09.198Z,53.20
2024-02-29T04:59:32.914Z,45.40
2024-02-29T05:01:56.692Z,49.87
2024-02-29T05:04:20.447Z,47.50
2024-02-29T05:06:44.132Z,53.53
2024-02-29T05:09:09.226Z,51.93
2024-02-29T05:11:32.829Z,53.67
2024-02-29T05:13:56.506Z,51.20
2024-02-29T05:16:21.534Z,52.77
2024-02-29T05:18:45.512Z,51.57
2024-02-29T05:21:09.316Z,47.53
2024-02-29T05:23:34.478Z,49.17
2024-02-29T05:25:59.468Z,50.87
2024-02-29T05:28:23.256Z,51.50
2024-02-29T05:30:47.139Z,44.77
2024-02-29T05:33:10.895Z,58.63
2024-02-29T05:35:35.917Z,56.70
2024-02-29T05:37:59.851Z,62.47
2024-02-29T05:40:23.737Z,56.50
2024-02-29T05:42:49.001Z,57.77
2024-02-29T05:45:13.907Z,57.73
2024-02-29T05:47:38.086Z,60.80
2024-02-29T05:50:01.777Z,61.33
2024-02-29T05:52:25.489Z,56.33
2024-02-29T05:54:49.318Z,62.47
2024-02-29T05:57:13.441Z,52.90
2024-02-29T05:59:38.956Z,57.83
2024-02-29T06:02:02.856Z,55.70
2024-02-29T06:04:26.723Z,56.30
2024-02-29T06:06:50.506Z,64.40
2024-02-29T06:09:16.095Z,59.60
2024-02-29T06:11:39.796Z,61.77
2024-02-29T06:14:04.002Z,56.70
2024-02-29T06:16:29.793Z,64.70
2024-02-29T06:18:53.539Z,63.03
2024-02-29T06:21:17.363Z,62.47
2024-02-29T06:23:41.029Z,67.20
2024-02-29T06:26:04.839Z,61.17
2024-02-29T06:28:29.870Z,70.77
2024-02-29T06:30:53.646Z,72.87
2024-02-29T06:33:18.817Z,73.83
2024-02-29T06:35:42.481Z,69.87
2024-02-29T06:38:06.758Z,70.13
2024-02-29T06:40:30.497Z,78.20
2024-02-29T06:42:54.415Z,70.70
2024-02-29T06:45:19.109Z,74.33
2024-02-29T06:47:43.853Z,84.87
2024-02-29T06:50:11.210Z,70.30
2024-02-29T06:52:34.893Z,79.73
2024-02-29T06:54:58.760Z,70.57
2024-02-29T06:57:22.381Z,67.63
2024-02-29T06:59:48.735Z,71.83
2024-02-29T07:02:13.564Z,69.80
2024-02-29T07:04:37.348Z,69.73
2024-02-29T07:07:04.409Z,65.37
2024-02-29T07:09:28.281Z,70.10
2024-02-29T07:11:51.903Z,64.97
2024-02-29T07:14:17.601Z,66.70
2024-02-29T07:16:41.314Z,64.53
2024-02-29T07:19:05.318Z,69.53
2024-02-29T07:21:28.965Z,66.30
2024-02-29T07:23:54.065Z,62.20
2024-02-29T07:26:17.834Z,62.70
2024-02-29T07:28:41.471Z,58.27
2024-02-29T07:31:07.157Z,64.00
2024-02-29T07:33:33.029Z,55.30
2024-02-29T07:35:56.665Z,62.47
2024-02-29T07:38:20.361Z,56.70
2024-02-29T07:40:45.525Z,61.03
2024-02-29T07:43:10.516Z,57.50
2024-02-29T07:45:34.468Z,56.30
2024-02-29T07:47:58.238Z,53.23
2024-02-29T07:50:21.892Z,52.67
2024-02-29T07:52:45.589Z,54.07
2024-02-29T07:55:11.583Z,50.80
2024-02-29T07:57:36.916Z,55.13
2024-02-29T08:00:00.754Z,48.37
2024-02-29T08:02:24.947Z,53.60
2024-02-29T08:04:48.756Z,50.67
2024-02-29T08:07:13.098Z,46.83
2024-02-29T08:09:37.224Z,42.40
2024-02-29T08:12:01.144Z,52.37
2024-02-29T08:14:26.754Z,50.50
2024-02-29T08:16:50.460Z,53.63
2024-02-29T08:19:14.349Z,47.50
2024-02-29T08:21:40.331Z,48.63
2024-02-29T08:24:04.313Z,56.57
2024-02-29T08:26:28.015Z,49.57
2024-02-29T08:28:51.836Z,52.87
2024-02-29T08:31:17.418Z,52.40
2024-02-29T08:33:41.096Z,46.77
2024-02-29T08:36:05.765Z,51.50
2024-02-29T08:38:29.567Z,52.33
2024-02-29T08:40:53.993Z,54.70
2024-02-29T08:43:20.510Z,49.50
2024-02-29T08:45:44.231Z,50.83
2024-02-29T08:48:09.882Z,44.27
2024-02-29T08:50:33.569Z,47.70
2024-02-29T08:52:57.732Z,38.20
2024-02-29T08:55:21.725Z,47.33
2024-02-29T08:57:45.489Z,45.05
2024-02-29T09:00:10.599Z,49.07
2024-02-29T09:02:34.312Z,40.88
2024-02-29T09:04:59.572Z,41.60
2024-02-29T09:07:23.322Z,49.58
2024-02-29T09:09:47.139Z,45.25
2024-02-29T09:12:11.855Z,43.78
2024-02-29T09:14:36.800Z,42.75
2024-02-29T09:17:00.550Z,38.17
2024-02-29T09:19:24.457Z,39.03
2024-02-29T09:21:49.625Z,43.03
2024-02-29T09:24:15.863Z,45.05
2024-02-29T09:26:39.882Z,42.53
2024-02-29T09:29:03.557Z,41.20
2024-02-29T09:31:27.328Z,42.20
2024-02-29T09:33:51.253Z,42.00
2024-02-29T09:36:16.642Z,39.08
2024-02-29T09:38:42.017Z,35.47
2024-02-29T09:41:18.457Z,33.78
2024-02-29T09:43:50.504Z,36.25
2024-02-29T09:46:14.259Z,33.72
2024-02-29T09:48:41.027Z,34.65
2024-02-29T09:51:05.220Z,33.33
2024-02-29T09:53:30.202Z,38.10
2024-02-29T09:55:55.523Z,35.25
2024-02-29T09:58:22.032Z,37.28
2024-02-29T10:00:46.112Z,33.08
2024-02-29T10:03:16.182Z,33.63
2024-02-29T10:05:40.415Z,34.50
2024-02-29T10:08:06.817Z,33.42
2024-02-29T10:10:30.884Z,32.95
2024-02-29T10:12:59.022Z,36.78
2024-02-29T10:15:27.915Z,30.33
2024-02-29T10:17:51.700Z,31.58
2024-02-29T10:20:17.460Z,29.60
2024-02-29T10:22:45.301Z,28.95
2024-02-29T10:25:13.134Z,32.38
2024-02-29T10:27:36.859Z,33.25
2024-02-29T10:30:02.059Z,34.95
2024-02-29T10:32:25.716Z,31.83
2024-02-29T10:34:50.104Z,30.02
2024-02-29T10:37:14.942Z,32.58
2024-02-29T10:39:41.753Z,32.50
2024-02-29T10:42:07.135Z,30.38
2024-02-29T10:44:35.471Z,29.50
2024-02-29T10:47:05.788Z,31.58
2024-02-29T10:49:36.068Z,31.63
2024-02-29T10:52:06.139Z,37.05
2024-02-29T10:54:38.460Z,30.58
2024-02-29T10:57:02.496Z,28.30
2024-02-29T10:59:27.811Z,31.95
2024-02-29T11:01:59.219Z,29.73
2024-02-29T11:04:27.131Z,26.63
2024-02-29T11:06:54.320Z,33.55
2024-02-29T11:09:25.656Z,28.92
2024-02-29T11:12:05.348Z,31.35
2024-02-29T11:14:37.537Z,30.00
2024-02-29T11:17:05.584Z,29.95
2024-02-29T11:19:33.034Z,33.58
2024-02-29T11:22:11.978Z,32.88
2024-02-29T11:24:38.153Z,32.03
2024-02-29T11:27:01.801Z,30.05
2024-02-29T11:29:26.622Z,30.55
2024-02-29T11:31:51.837Z,28.85
2024-02-29T11:34:15.863Z,30.60
2024-02-29T11:36:43.244Z,29.08
2024-02-29T11:39:10.935Z,29.35
2024-02-29T11:41:34.679Z,21.35
2024-02-29T11:43:58.413Z,31.80
2024-02-29T11:46:22.109Z,31.20
2024-02-29T11:48:46.123Z,26.17
2024-02-29T11:51:11.288Z,31.35
2024-02-29T11:53:37.049Z,29.85
2024-02-29T11:56:07.248Z,32.13
2024-02-29T11:58:38.909Z,29.70
2024-02-29T12:01:05.238Z,28.35
2024-02-29T12:03:29.116Z,29.70
2024-02-29T12:05:52.868Z,29.95
2024-02-29T12:08:16.785Z,30.48
2024-02-29T12:10:41.928Z,28.77
2024-02-29T12:13:06.212Z,28.83
2024-02-29T12:15:30.015Z,30.67
2024-02-29T12:17:53.753Z,30.92
2024-02-29T12:20:18.721Z,30.75
2024-02-29T12:22:42.765Z,35.15
2024-02-29T12:25:14.417Z,28.65
2024-02-29T12:27:40.938Z,32.70
2024-02-29T12:30:07.075Z,26.67
2024-02-29T12:32:30.826Z,31.77
2024-02-29T12:34:55.583Z,28.98
2024-02-29T12:37:22.066Z,25.92
2024-02-29T12:39:56.110Z,27.70
2024-02-29T12:42:20.050Z,31.73
2024-02-29T12:44:45.935Z,27.33
2024-02-29T12:47:09.600Z,28.63
2024-02-29T12:49:33.272Z,25.88
2024-02-29T12:51:56.516Z,27.00
2024-02-29T12:54:20.209Z,21.70
2024-02-29T12:56:43.910Z,22.40
2024-02-29T12:59:08.505Z,28.13
2024-02-29T13:01:34.513Z,27.08
2024-02-29T13:03:58.408Z,29.10
2024-02-29T13:06:21.167Z,25.83
2024-02-29T13:08:45.898Z,28.08
2024-02-29T13:11:09.660Z,29.75
2024-02-29T13:13:33.473Z,29.77
2024-02-29T13:15:57.371Z,30.38
2024-02-29T13:18:22.390Z,28.17
2024-02-29T13:20:46.088Z,29.65
2024-02-29T13:23:09.987Z,29.27
2024-02-29T13:25:33.838Z,30.35
2024-02-29T13:27:57.890Z,25.17
2024-02-29T13:30:21.862Z,25.92
2024-02-29T13:32:45.766Z,27.92
2024-02-29T13:35:11.275Z,28.65
2024-02-29T13:37:35.074Z,27.95
2024-02-29T13:39:58.860Z,24.83
2024-02-29T13:42:22.593Z,25.52
2024-02-29T13:44:46.833Z,24.52
2024-02-29T13:47:10.654Z,25.25
2024-02-29T13:49:34.780Z,21.33
2024-02-29T13:52:00.227Z,25.75
2024-02-29T13:54:24.027Z,27.10
2024-02-29T13:56:48.101Z,28.60
2024-02-29T13:59:11.953Z,19.02
2024-02-29T14:01:35.676Z,22.65
2024-02-29T14:03:59.425Z,23.83
2024-02-29T14:06:23.107Z,22.58
2024-02-29T14:08:49.397Z,23.30
2024-02-29T14:11:13.091Z,26.45
2024-02-29T14:13:40.469Z,23.20
2024-02-29T14:16:06.716Z,21.52
2024-02-29T14:18:31.252Z,18.80
2024-02-29T14:20:54.958Z,22.65
2024-02-29T14:23:19.447Z,25.17
2024-02-29T14:25:44.615Z,21.77
2024-02-29T14:28:09.220Z,23.05
2024-02-29T14:30:32.918Z,21.00
2024-02-29T14:32:57.888Z,19.58
2024-02-29T14:35:21.483Z,19.23
2024-02-29T14:37:45.255Z,21.55
2024-02-29T14:40:12.944Z,22.20
2024-02-29T14:42:38.334Z,23.95
2024-02-29T14:45:01.953Z,22.58
2024-02-29T14:47:27.740Z,23.02
2024-02-29T14:49:51.530Z,20.02
2024-02-29T14:52:15.373Z,28.25
2024-02-29T14:54:39.217Z,26.08
2024-02-29T14:57:03.355Z,17.92
2024-02-29T14:59:28.618Z,33.75
2024-02-29T15:01:52.372Z,28.15
2024-02-29T15:04:16.106Z,24.30
2024-02-29T15:06:40.787Z,25.25
2024-02-29T15:09:06.068Z,28.65
2024-02-29T15:11:30.601Z,29.92
2024-02-29T15:13:54.565Z,30.15
2024-02-29T15:16:21.071Z,30.20
2024-02-29T15:18:44.858Z,26.73
2024-02-29T15:21:09.692Z,28.38
2024-02-29T15:23:33.272Z,28.83
2024-02-29T15:25:57.649Z,28.20
2024-02-29T15:28:21.453Z,26.45
2024-02-29T15:30:46.130Z,29.27
2024-02-29T15:33:11.407Z,29.45
2024-02-29T15:35:35.193Z,30.00
2024-02-29T15:38:01.950Z,37.58
2024-02-29T15:40:26.057Z,34.92
2024-02-29T15:42:49.824Z,31.15
2024-02-29T15:45:14.137Z,32.75
2024-02-29T15:47:37.945Z,29.95
2024-02-29T15:50:03.041Z,30.90
2024-02-29T15:52:26.682Z,28.83
2024-02-29T15:54:50.422Z,32.88
2024-02-29T15:57:14.475Z,33.28
2024-02-29T15:59:38.182Z,36.17
2024-02-29T16:02:01.813Z,34.97
2024-02-29T16:04:26.396Z,34.65
2024-02-29T16:06:51.482Z,33.88
2024-02-29T16:09:16.153Z,35.78
2024-02-29T16:11:39.992Z,37.53
2024-02-29T16:14:03.692Z,33.10
2024-02-29T16:16:27.445Z,36.20
2024-02-29T16:18:51.196Z,31.70
2024-02-29T16:21:15.052Z,32.08
2024-02-29T16:23:40.455Z,35.42
2024-02-29T16:26:04.689Z,34.78
2024-02-29T16:28:29.735Z,33.60
2024-02-29T16:30:53.450Z,33.20
2024-02-29T16:33:17.779Z,31.45
2024-02-29T16:35:42.151Z,30.02
2024-02-29T16:38:06.674Z,29.20
2024-02-29T16:40:32.212Z,35.22
2024-02-29T16:42:56.007Z,31.25
2024-02-29T16:45:19.714Z,33.40
2024-02-29T16:47:43.785Z,33.00
2024-02-29T16:50:08.370Z,31.30
2024-02-29T16:52:32.082Z,30.65
2024-02-29T16:54:55.752Z,26.90
2024-02-29T16:57:21.102Z,25.42
2024-02-29T16:59:44.758Z,24.60
2024-02-29T17:02:09.218Z,26.77
2024-02-29T17:04:34.451Z,27.92
2024-02-29T17:06:58.197Z,21.63
2024-02-29T17:09:21.835Z,22.83
2024-02-29T17:11:45.649Z,23.52
2024-02-29T17:14:11.292Z,22.75
2024-02-29T17:16:35.095Z,23.33
2024-02-29T17:18:58.908Z,25.38
2024-02-29T17:21:26.359Z,22.63
2024-02-29T17:23:50.237Z,22.20
2024-02-29T17:26:17.905Z,22.25
2024-02-29T17:28:41.564Z,23.23
2024-02-29T17:31:06.861Z,22.23
2024-02-29T17:33:30.527Z,18.35
2024-02-29T17:35:54.527Z,20.08
2024-02-29T17:38:18.245Z,23.00
2024-02-29T17:40:42.004Z,22.40
2024-02-29T17:43:05.934Z,20.38
2024-02-29T17:45:29.884Z,21.58
2024-02-29T17:47:54.229Z,23.02
2024-02-29T17:50:18.810Z,24.42
2024-02-29T17:52:42.610Z,22.38
2024-02-29T17:55:07.477Z,18.10
2024-02-29T17:57:31.085Z,24.50
2024-02-29T17:59:54.848Z,24.98
2024-02-29T18:02:18.574Z,21.02
2024-02-29T18:04:43.820Z,22.13
2024-02-29T18:07:07.447Z,26.50
2024-02-29T18:09:31.202Z,24.95
2024-02-29T18:11:55.938Z,23.85
2024-02-29T18:14:20.115Z,31.15
2024-02-29T18:16:44.237Z,26.95
2024-02-29T18:19:08.061Z,23.90
2024-02-29T18:21:33.109Z,29.25
2024-02-29T18:23:57.278Z,26.42
2024-02-29T18:26:22.683Z,25.83
2024-02-29T18:28:46.712Z,25.58
2024-02-29T18:31:10.398Z,24.92
2024-02-29T18:33:34.281Z,26.00
2024-02-29T18:35:58.260Z,21.73
2024-02-29T18:38:23.897Z,21.85
2024-02-29T18:40:48.537Z,19.50
2024-02-29T18:43:12.600Z,23.02
2024-02-29T18:45:36.354Z,24.40
2024-02-29T18:48:00.264Z,23.45
2024-02-29T18:50:23.434Z,23.25
2024-02-29T18:52:47.149Z,22.70
2024-02-29T18:55:12.815Z,28.20
2024-02-29T18:57:37.078Z,26.55
2024-02-29T19:00:00.814Z,25.90
2024-02-29T19:02:24.680Z,27.55
2024-02-29T19:04:52.337Z,25.35
2024-02-29T19:07:16.112Z,23.08
2024-02-29T19:09:39.857Z,26.13
2024-02-29T19:12:06.652Z,23.38
2024-02-29T19:14:30.619Z,25.00
2024-02-29T19:16:55.141Z,30.52
2024-02-29T19:19:20.114Z,25.40
2024-02-29T19:21:44.157Z,25.60
2024-02-29T19:24:11.875Z,25.52
2024-02-29T19:26:36.025Z,25.92
2024-02-29T19:29:01.005Z,22.88
2024-02-29T19:31:24.867Z,26.23
2024-02-29T19:33:48.573Z,25.90
2024-02-29T19:36:16.855Z,28.88
2024-02-29T19:38:40.518Z,27.27
2024-02-29T19:41:05.064Z,24.90
2024-02-29T19:43:28.698Z,30.20
2024-02-29T19:45:53.841Z,29.73
2024-02-29T19:48:18.038Z,24.27
2024-02-29T19:50:41.767Z,26.55
2024-02-29T19:53:06.163Z,29.92
2024-02-29T19:55:30.372Z,28.42
2024-02-29T19:57:54.347Z,25.70
2024-02-29T20:00:18.824Z,33.47
2024-02-29T20:02:43.960Z,28.15
2024-02-29T20:05:09.903Z,27.27
2024-02-29T20:07:33.586Z,29.90
2024-02-29T20:09:57.547Z,35.33
2024-02-29T20:12:21.277Z,30.48
2024-02-29T20:14:45.155Z,35.58
2024-02-29T20:17:08.761Z,29.60
2024-02-29T20:19:35.864Z,30.83
2024-02-29T20:22:03.517Z,34.50
2024-02-29T20:24:27.165Z,36.33
2024-02-29T20:26:50.832Z,31.35
2024-02-29T20:29:14.524Z,32.72
2024-02-29T20:31:38.188Z,39.35
2024-02-29T20:34:01.956Z,34.03
2024-02-29T20:36:28.506Z,34.08
2024-02-29T20:38:52.594Z,46.60
2024-02-29T20:41:16.324Z,35.75
2024-02-29T20:43:40.673Z,33.88
2024-02-29T20:46:04.865Z,35.25
2024-02-29T20:48:28.764Z,36.70
2024-02-29T20:50:52.599Z,39.45
2024-02-29T20:53:17.726Z,35.17
2024-02-29T20:55:41.574Z,36.67
2024-02-29T20:58:05.795Z,33.53
2024-02-29T21:00:29.926Z,34.00
2024-02-29T21:02:56.036Z,28.80
2024-02-29T21:05:21.711Z,40.00
2024-02-29T21:07:46.149Z,37.35
2024-02-29T21:10:12.245Z,37.40
2024-02-29T21:12:36.154Z,39.60
2024-02-29T21:14:59.953Z,36.92
2024-02-29T21:17:23.607Z,34.58
2024-02-29T21:19:47.795Z,37.72
2024-02-29T21:22:11.553Z,36.95
2024-02-29T21:24:35.210Z,39.10
2024-02-29T21:27:00.247Z,37.95
2024-02-29T21:29:24.343Z,40.25
2024-02-29T21:31:48.074Z,40.08
2024-02-29T21:34:12.022Z,40.67
2024-02-29T21:36:35.741Z,37.08
2024-02-29T21:39:00.145Z,38.05
2024-02-29T21:41:24.028Z,36.13
2024-02-29T21:43:49.058Z,37.58
2024-02-29T21:46:14.469Z,35.65
2024-02-29T21:48:38.523Z,38.97
2024-02-29T21:51:03.146Z,38.97
2024-02-29T21:53:26.846Z,37.85
2024-02-29T21:55:50.841Z,33.38
2024-02-29T21:58:14.591Z,37.28
2024-02-29T22:00:39.718Z,32.33
2024-02-29T22:03:03.484Z,36.75
2024-02-29T22:05:27.141Z,39.45
2024-02-29T22:07:50.889Z,39.08
2024-02-29T22:10:14.739Z,35.88
2024-02-29T22:12:39.175Z,35.80
2024-02-29T22:15:03.675Z,39.97
2024-02-29T22:17:28.724Z,38.88
2024-02-29T22:19:52.416Z,35.45
2024-02-29T22:22:16.165Z,38.03
2024-02-29T22:24:42.084Z,36.03
2024-02-29T22:27:05.875Z,41.78
2024-02-29T22:29:29.790Z,36.53
2024-02-29T22:31:53.446Z,33.90
2024-02-29T22:34:18.503Z,39.42
2024-02-29T22:36:42.187Z,37.72
2024-02-29T22:39:06.694Z,42.53
2024-02-29T22:41:30.853Z,36.50
2024-02-29T22:43:55.851Z,40.22
2024-02-29T22:46:19.720Z,42.95
2024-02-29T22:48:43.431Z,41.42
2024-02-29T22:51:08.599Z,38.92
2024-02-29T22:53:32.387Z,46.75
2024-02-29T22:55:56.138Z,41.72
2024-02-29T22:58:20.107Z,36.97
2024-02-29T23:00:44.061Z,36.65
2024-02-29T23:03:08.138Z,40.72
2024-02-29T23:05:32.290Z,40.28
2024-02-29T23:07:57.445Z,36.95
2024-02-29T23:10:21.746Z,47.08
2024-02-29T23:12:45.662Z,39.67
2024-02-29T23:15:10.663Z,41.20
2024-02-29T23:17:34.328Z,43.47
2024-02-29T23:19:57.954Z,40.35
2024-02-29T23:22:21.686Z,45.83
2024-02-29T23:24:46.879Z,47.70
2024-02-29T23:27:10.583Z,41.47
2024-02-29T23:29:34.208Z,48.60
2024-02-29T23:31:58.998Z,44.03
2024-02-29T23:34:22.853Z,53.13
2024-02-29T23:36:48.776Z,50.00
2024-02-29T23:39:12.625Z,49.67
2024-02-29T23:41:37.825Z,48.67
2024-02-29T23:44:01.689Z,47.92
2024-02-29T23:46:25.435Z,46.08
2024-02-29T23:48:49.202Z,46.80
2024-02-29T23:51:13.098Z,46.63
2024-02-29T23:53:36.744Z,53.38
2024-02-29T23:56:00.383Z,53.42
2024-02-29T23:58:25.579Z,49.25
